Nearby METAR Reports

 

KAGC - Pittsburgh/Alleg, Pennsylvania, USA
Distance from station: SW 8mi, 12km
Updated: Tue, 06-Dec-2022 9:53pm EST
Fog, Overcast
Fog, Overcast
 Wind from S
Wind: S 7 mph , 11 km/h
Temperature: 54°F , 12°C
Dew Point: 52°F , 11°C
Humidity: 94%
Barometer: 30.05 inHg , 1017.6 hPa
Summary: Fog
Clouds: Overcast
Visibility: 1/4 mile , 0.4 km
Cloud details: Overcast 200 ft
2022/12/07 02:53 KAGC 070253Z 19006KT 1/4SM R28/2000V2400FT FG VV002 12/11 A3005 RMK AO2 SLP183 T01170106 53005
KLBE - Latrobe/Westmorl, Pennsylvania, USA
Distance from station: ESE 24mi, 38km
Updated: Tue, 06-Dec-2022 10:15pm EST
Overcast
Overcast
 Wind from SSW
Wind: SSW 8 mph , 13 km/h
Temperature: 55°F , 13°C
Dew Point: 55°F , 13°C
Humidity: 100%
Barometer: 30.07 inHg , 1018.3 hPa
Clouds: Overcast
Visibility: 10 miles , 16 km
Cloud details: Partly cloudy 600 ft
Overcast 1300 ft
2022/12/07 03:15 KLBE 070315Z AUTO 20007KT 10SM SCT006 OVC013 13/13 A3007 RMK AO2
 
KPIT - Pittsburgh, Pennsylvania, USA
Distance from station: WNW 25mi, 40km
Updated: Tue, 06-Dec-2022 9:51pm EST
Light rain, Fog, Overcast
Light rain, Fog, Overcast
 Wind from calm
Wind: Calm
Temperature: 48°F , 9°C
Dew Point: 46°F , 8°C
Humidity: 94%
Barometer: 30.05 inHg , 1017.6 hPa
Summary: Light rain, Fog
Clouds: Overcast
Visibility: 1/2 mile , 0.8 km
Cloud details: Overcast 100 ft
2022/12/07 02:51 KPIT 070251Z 00000KT 1/2SM R28R/P6000FT -RA FG VV001 09/08 A3005 RMK AO2 RAE06B50DZB06E50 SLP187 P0000 60000 T00890083 53004
KBTP - Butler Co., Pennsylvania, USA
Distance from station: NNW 25mi, 41km
Updated: Tue, 06-Dec-2022 9:56pm EST
Light rain, Mist, Overcast
Light rain, Mist, Overcast
 Wind from calm
Wind: Calm
Temperature: 46°F , 8°C
Dew Point: 46°F , 8°C
Humidity: 100%
Barometer: 30.06 inHg , 1017.9 hPa
Summary: Light rain, Mist
Clouds: Overcast
Visibility: 3/4 mile , 1.2 km
Cloud details: Overcast 300 ft
2022/12/07 02:56 KBTP 070256Z AUTO 00000KT 3/4SM -RA BR OVC003 08/08 A3006 RMK AO2 RAB08E31B56 SLP193 P0000 60002 T00780078 53003 TSNO
 
KAFJ - Washington, Pennsylvania, USA
Distance from station: SW 32mi, 52km
Updated: Tue, 06-Dec-2022 9:56pm EST
Overcast
Overcast
 Wind from SSW
Wind: SSW 6 mph , 9 km/h
Temperature: 54°F , 12°C
Dew Point: 54°F , 12°C
Humidity: 100%
Barometer: 30.08 inHg , 1018.6 hPa
Clouds: Overcast
Visibility: 10 miles , 16 km
Cloud details: Overcast 700 ft
2022/12/07 02:56 KAFJ 070256Z AUTO 20005KT 10SM OVC007 12/12 A3008 RMK AO2 RAB09E24 CIG 005V010 SLP189 P0001 60001 T01220122 53001
KBVI - Beaver Falls Arp, Pennsylvania, USA
Distance from station: NW 40mi, 64km
Updated: Tue, 06-Dec-2022 10:15pm EST
Fog, Overcast
Fog, Overcast
 Wind from SSE
Wind: SSE 3 mph , 6 km/h
Temperature: 48°F , 9°C
Dew Point: 46°F , 8°C
Humidity: 94%
Barometer: 30.05 inHg , 1017.6 hPa
Summary: Fog
Clouds: Overcast
Visibility: 1/4 mile , 0.4 km
Cloud details: Overcast 300 ft
2022/12/07 03:15 KBVI 070315Z AUTO 15003KT 1/4SM FG OVC003 09/08 A3005 RMK AO2 T00910080
 
KIDI - Indiana/Stewart, Pennsylvania, USA
Distance from station: ENE 40mi, 65km
Updated: Tue, 06-Dec-2022 10:15pm EST
Overcast
Overcast
 Wind from SE
Wind: SE 3 mph , 6 km/h
Temperature: 48°F , 9°C
Dew Point: 48°F , 9°C
Humidity: 100%
Barometer: 30.10 inHg , 1019.3 hPa
Clouds: Overcast
Visibility: 8 miles , 13 km
Cloud details: Overcast 500 ft
2022/12/07 03:15 KIDI 070315Z AUTO 13003KT 8SM OVC005 09/09 A3010 RMK A01
KHLG - Wheeling, West Virginia, USA
Distance from station: WSW 48mi, 77km
Updated: Tue, 06-Dec-2022 9:53pm EST
Mist, Overcast
Mist, Overcast
 Wind from SW
Wind: SW 7 mph , 11 km/h
Temperature: 54°F , 12°C
Dew Point: 54°F , 12°C
Humidity: 100%
Barometer: 30.05 inHg , 1017.6 hPa
Summary: Mist
Clouds: Overcast
Visibility: 3 miles , 5 km
Cloud details: Overcast 300 ft
2022/12/07 02:53 KHLG 070253Z 22006KT 3SM BR OVC003 12/12 A3005 RMK AO2 RAB02E35 CIG 002V006 SLP181 P0000 60000 T01220117 51006
 
K2G9 - Somerset, Pennsylvania, USA
Distance from station: ESE 49mi, 79km
Updated: Tue, 06-Dec-2022 10:15pm EST
Light rain, Overcast
Light rain, Overcast
 Wind from S
Wind: S 5 mph , 7 km/h
Temperature: 46°F , 8°C
Wind Chill: 44°F , 7°C
Dew Point: 46°F , 8°C
Humidity: 100%
Barometer: 30.09 inHg , 1019 hPa
Summary: Light rain
Clouds: Overcast
Visibility: 10 miles , 16 km
Cloud details: Overcast 400 ft
2022/12/07 03:15 K2G9 070315Z AUTO 18004KT 10SM -RA OVC004 08/08 A3009 RMK AO2